Time;durP1;ratioP1;P1;durP2;ratioP2;P2;SDS_P1;SDS_P2;PMS_P1;PMS_P2;Temp;Humidity;BMP_temperature;BMP_pressure;BME280_temperature;BME280_humidity;BME280_pressure;Samples;Min_cycle;Max_cycle;Signal;HPM_P1;HPM_P2
2022/11/28 00:01:57;;;;;;;5.07;3.70;;;;;;;7.08;100.00;100908.22;5068499;28;20017;-60
2022/11/28 00:04:23;;;;;;;4.90;3.70;;;;;;;7.09;100.00;100907.16;5068978;28;20045;-61
2022/11/28 00:06:49;;;;;;;4.70;4.20;;;;;;;7.14;100.00;100909.28;5069063;28;20040;-61
2022/11/28 00:09:16;;;;;;;4.63;4.03;;;;;;;7.12;100.00;100916.84;5067176;28;20032;-60
2022/11/28 00:11:43;;;;;;;4.55;3.55;;;;;;;7.19;100.00;100910.34;5066856;28;20051;-60
2022/11/28 00:14:09;;;;;;;4.25;3.55;;;;;;;7.17;100.00;100904.25;5067692;28;20032;-60
2022/11/28 00:16:35;;;;;;;4.45;3.83;;;;;;;7.18;100.00;100905.94;5067827;28;20071;-59
2022/11/28 00:19:01;;;;;;;4.43;3.42;;;;;;;7.19;100.00;100902.16;5067777;28;20486;-59
2022/11/28 00:21:27;;;;;;;5.15;3.83;;;;;;;7.21;100.00;100901.97;5066500;28;20106;-60
2022/11/28 00:23:53;;;;;;;5.05;3.90;;;;;;;7.21;100.00;100899.22;5067620;28;20032;-60
2022/11/28 00:26:30;;;;;;;5.90;4.10;;;;;;;7.23;100.00;100888.91;5067935;28;20386;-59
2022/11/28 00:28:56;;;;;;;4.38;3.80;;;;;;;7.26;100.00;100900.28;5066009;28;20037;-61
2022/11/28 00:31:24;;;;;;;4.55;3.50;;;;;;;7.25;100.00;100887.69;5068285;28;20056;-60
2022/11/28 00:33:50;;;;;;;4.78;3.97;;;;;;;7.26;100.00;100892.09;5067930;28;20054;-61
2022/11/28 00:36:16;;;;;;;5.35;3.80;;;;;;;7.27;100.00;100896.50;5067437;28;20037;-61
2022/11/28 00:38:41;;;;;;;4.50;3.40;;;;;;;7.29;100.00;100897.13;5067626;28;20094;-60
2022/11/28 00:41:12;;;;;;;4.57;3.47;;;;;;;7.33;100.00;100888.53;5067547;28;20039;-61
2022/11/28 00:43:38;;;;;;;4.55;3.28;;;;;;;7.36;100.00;100885.38;5066399;28;20086;-61
2022/11/28 00:46:04;;;;;;;5.18;3.53;;;;;;;7.42;100.00;100881.81;5062054;28;20083;-61
2022/11/28 00:48:31;;;;;;;4.70;3.80;;;;;;;7.44;100.00;100890.63;5065844;28;20036;-61
2022/11/28 00:51:06;;;;;;;4.78;3.58;;;;;;;7.47;100.00;100885.59;5066869;28;20016;-60
2022/11/28 00:53:31;;;;;;;3.17;2.88;;;;;;;7.50;100.00;100882.44;5067232;28;20033;-60
2022/11/28 00:55:56;;;;;;;3.80;3.20;;;;;;;7.52;100.00;100882.22;5067005;28;20036;-60
2022/11/28 00:58:22;;;;;;;4.72;3.10;;;;;;;7.55;100.00;100876.31;5066725;28;20112;-61
2022/11/28 01:00:47;;;;;;;3.90;2.83;;;;;;;7.58;100.00;100880.53;5067591;28;20029;-60
2022/11/28 01:03:12;;;;;;;4.38;3.30;;;;;;;7.57;100.00;100874.25;5066157;28;20064;-61
2022/11/28 01:05:42;;;;;;;4.07;2.90;;;;;;;7.62;100.00;100862.69;5067389;28;20131;-60
2022/11/28 01:08:07;;;;;;;3.97;3.00;;;;;;;7.63;100.00;100873.41;5049820;28;20017;-60
2022/11/28 01:10:33;;;;;;;3.80;2.90;;;;;;;7.66;100.00;100875.72;5066834;28;20394;-61
2022/11/28 01:12:58;;;;;;;3.10;2.75;;;;;;;7.67;100.00;100869.19;5065196;28;20028;-60
2022/11/28 01:15:23;;;;;;;3.03;2.70;;;;;;;7.69;100.00;100860.78;5066604;28;20031;-61
2022/11/28 01:17:48;;;;;;;3.03;2.53;;;;;;;7.69;100.00;100868.97;5067768;28;20063;-60
2022/11/28 01:20:14;;;;;;;4.40;2.80;;;;;;;7.72;100.00;100872.13;5063277;28;20032;-60
2022/11/28 01:22:39;;;;;;;3.45;2.88;;;;;;;7.78;100.00;100874.00;5066493;28;20025;-60
2022/11/28 01:25:05;;;;;;;3.58;2.78;;;;;;;7.81;100.00;100870.03;5066491;28;20037;-62
2022/11/28 01:27:30;;;;;;;4.32;2.80;;;;;;;7.79;100.00;100870.22;5065944;28;20025;-60
2022/11/28 01:29:55;;;;;;;4.53;2.50;;;;;;;7.80;100.00;100871.06;5066643;28;20119;-60
2022/11/28 01:32:21;;;;;;;3.70;2.30;;;;;;;7.80;100.00;100879.25;5067645;28;20612;-61
2022/11/28 01:34:46;;;;;;;3.08;2.78;;;;;;;7.71;100.00;100881.41;5067904;28;20024;-60
2022/11/28 01:37:11;;;;;;;4.60;2.92;;;;;;;7.58;100.00;100878.66;5064991;28;20390;-61
2022/11/28 01:39:37;;;;;;;3.25;2.75;;;;;;;7.49;100.00;100875.28;5066909;28;20028;-61
2022/11/28 01:42:02;;;;;;;3.42;2.95;;;;;;;7.43;100.00;100887.06;5066805;28;20033;-61
2022/11/28 01:44:28;;;;;;;4.05;2.97;;;;;;;7.38;100.00;100875.06;5065595;28;20040;-60
2022/11/28 01:46:54;;;;;;;4.07;3.10;;;;;;;7.35;100.00;100870.88;5067186;28;20033;-60
2022/11/28 01:49:26;;;;;;;4.35;3.17;;;;;;;7.35;100.00;100880.94;5066022;28;20124;-60
2022/11/28 01:52:00;;;;;;;3.53;2.92;;;;;;;7.35;100.00;100878.22;5065454;28;20036;-61
2022/11/28 01:54:26;;;;;;;4.13;3.30;;;;;;;7.34;100.00;100876.53;5065358;28;20434;-61
2022/11/28 01:56:59;;;;;;;4.32;3.22;;;;;;;7.35;100.00;100864.56;5066322;28;20036;-60
2022/11/28 01:59:29;;;;;;;4.75;3.05;;;;;;;7.35;100.00;100870.88;5066791;28;20072;-61
2022/11/28 02:01:54;;;;;;;3.63;2.92;;;;;;;7.36;100.00;100867.09;5066216;28;20095;-61
2022/11/28 02:04:21;;;;;;;3.65;2.92;;;;;;;7.34;100.00;100871.06;5066693;28;20051;-61
2022/11/28 02:06:46;;;;;;;3.92;3.28;;;;;;;7.29;100.00;100869.81;5066235;28;20055;-60
2022/11/28 02:09:14;;;;;;;4.75;3.00;;;;;;;7.29;100.00;100866.22;5045490;22;20090;-61
2022/11/28 02:11:49;;;;;;;3.95;3.35;;;;;;;7.19;100.00;100863.06;5012093;28;20052;-60
2022/11/28 02:14:35;;;;;;;3.83;2.90;;;;;;;7.23;100.00;100859.72;5014353;28;20056;-59
2022/11/28 02:17:39;;;;;;;5.28;3.28;;;;;;;7.15;100.00;100862.66;5004825;28;20448;-60
2022/11/28 02:20:54;;;;;;;4.20;3.22;;;;;;;7.14;100.00;100854.66;5005612;28;20384;-60
2022/11/28 02:23:46;;;;;;;4.47;3.33;;;;;;;7.10;100.00;100856.16;5007771;28;20037;-60
2022/11/28 02:26:39;;;;;;;6.18;3.03;;;;;;;7.08;100.00;100858.22;5010820;28;20104;-60
2022/11/28 02:29:24;;;;;;;3.65;2.95;;;;;;;7.06;100.00;100850.25;5001618;28;20110;-61
2022/11/28 02:32:04;;;;;;;3.70;3.13;;;;;;;7.05;100.00;100851.31;5027240;28;20048;-60
2022/11/28 02:34:45;;;;;;;4.55;3.35;;;;;;;7.03;100.00;100845.19;5029252;28;20028;-62
2022/11/28 02:37:36;;;;;;;4.85;3.22;;;;;;;7.03;100.00;100848.75;5030333;28;20067;-61
2022/11/28 02:40:20;;;;;;;5.22;3.50;;;;;;;7.10;100.00;100846.06;5008744;28;20042;-60
2022/11/28 02:43:26;;;;;;;3.97;3.15;;;;;;;7.05;100.00;100845.00;5015051;28;20026;-60
2022/11/28 02:45:56;;;;;;;5.07;3.30;;;;;;;7.00;100.00;100851.94;4930131;29;20035;-61
2022/11/28 02:48:51;;;;;;;3.28;2.83;;;;;;;6.99;100.00;100844.78;4929978;29;20036;-61
2022/11/28 02:51:26;;;;;;;3.95;3.10;;;;;;;6.98;100.00;100844.97;4972182;28;20107;-60
2022/11/28 02:53:54;;;;;;;4.30;3.00;;;;;;;6.98;100.00;100847.69;5027084;28;20736;-61
2022/11/28 02:56:21;;;;;;;4.10;3.00;;;;;;;6.97;100.00;100840.56;5029435;28;20045;-61
2022/11/28 02:58:47;;;;;;;3.78;3.03;;;;;;;6.96;100.00;100842.47;5028862;28;20033;-61
2022/11/28 03:01:21;;;;;;;3.70;3.03;;;;;;;6.96;100.00;100833.44;5028677;28;20112;-60
2022/11/28 03:04:08;;;;;;;5.20;3.00;;;;;;;6.94;100.00;100836.34;5025286;28;20137;-61
2022/11/28 03:07:00;;;;;;;4.57;2.80;;;;;;;6.92;100.00;100837.63;5022120;28;20484;-61
2022/11/28 03:09:43;;;;;;;3.50;2.65;;;;;;;6.93;100.00;100831.09;5028244;28;20132;-60
2022/11/28 03:12:20;;;;;;;4.45;3.25;;;;;;;6.88;100.00;100828.16;5027629;28;20033;-61
2022/11/28 03:14:57;;;;;;;3.80;3.30;;;;;;;6.92;100.00;100835.72;5020729;28;20022;-60
2022/11/28 03:17:52;;;;;;;3.30;3.00;;;;;;;6.87;100.00;100829.19;5009189;28;20388;-61
2022/11/28 03:20:55;;;;;;;3.45;3.00;;;;;;;6.87;100.00;100819.13;5026139;28;20302;-60
2022/11/28 03:23:45;;;;;;;4.00;3.30;;;;;;;6.86;100.00;100825.63;5028176;28;20048;-62
2022/11/28 03:26:35;;;;;;;4.22;2.95;;;;;;;6.87;100.00;100834.66;4998813;28;20400;-60
2022/11/28 03:29:19;;;;;;;4.43;3.38;;;;;;;6.86;100.00;100835.72;4989297;28;20165;-60
2022/11/28 03:31:51;;;;;;;3.67;3.25;;;;;;;6.85;100.00;100832.16;4990168;28;20527;-60
2022/11/28 03:34:21;;;;;;;4.70;3.20;;;;;;;6.83;100.00;100838.84;4989959;28;20029;-61
2022/11/28 03:36:52;;;;;;;6.05;3.33;;;;;;;6.83;100.00;100834.22;5011725;28;20132;-61
2022/11/28 03:39:22;;;;;;;4.40;3.38;;;;;;;6.82;100.00;100832.56;5027828;28;20376;-60
2022/11/28 03:41:54;;;;;;;6.05;3.42;;;;;;;6.83;100.00;100834.22;5023605;28;20396;-61
2022/11/28 03:44:26;;;;;;;4.68;3.58;;;;;;;6.83;100.00;100833.38;5005616;28;20036;-60
2022/11/28 03:46:55;;;;;;;5.03;3.55;;;;;;;6.83;100.00;100831.50;5026579;28;20048;-61
2022/11/28 03:49:26;;;;;;;4.30;3.38;;;;;;;6.84;100.00;100821.41;5028245;28;20398;-62
2022/11/28 03:51:56;;;;;;;5.20;3.72;;;;;;;6.85;100.00;100828.59;5026822;28;20122;-61
2022/11/28 03:54:31;;;;;;;4.38;3.28;;;;;;;6.86;100.00;100822.91;5008415;28;20061;-60
2022/11/28 03:57:11;;;;;;;4.53;3.45;;;;;;;6.85;100.00;100820.41;5024799;28;20041;-61
2022/11/28 03:59:42;;;;;;;5.22;3.53;;;;;;;6.86;100.00;100820.19;5028987;28;20085;-60
2022/11/28 04:02:10;;;;;;;4.75;3.65;;;;;;;6.85;100.00;100831.31;5029006;28;20041;-60
2022/11/28 04:05:06;;;;;;;4.95;3.40;;;;;;;6.87;100.00;100829.19;5024426;28;20029;-61
2022/11/28 04:07:43;;;;;;;5.03;3.50;;;;;;;6.86;100.00;100825.63;5006798;28;20744;-60
2022/11/28 04:10:29;;;;;;;6.22;3.53;;;;;;;6.84;100.00;100830.44;5016428;28;20033;-61
2022/11/28 04:13:13;;;;;;;5.65;3.60;;;;;;;6.86;100.00;100830.25;5027031;28;20034;-61
2022/11/28 04:15:53;;;;;;;5.45;4.00;;;;;;;6.85;100.00;100836.78;5012325;28;20033;-60
2022/11/28 04:18:44;;;;;;;4.75;3.65;;;;;;;6.85;100.00;100832.16;5027583;28;20047;-61
2022/11/28 04:21:22;;;;;;;5.60;3.20;;;;;;;6.86;100.00;100824.81;5025635;28;20041;-60
2022/11/28 04:23:50;;;;;;;4.35;3.45;;;;;;;6.86;100.00;100827.53;5012610;28;20042;-61
2022/11/28 04:26:21;;;;;;;3.90;3.30;;;;;;;6.85;100.00;100831.31;5007207;28;20049;-60
2022/11/28 04:28:48;;;;;;;4.90;3.80;;;;;;;6.89;100.00;100830.66;5008317;28;20044;-61
2022/11/28 04:31:15;;;;;;;6.73;3.73;;;;;;;6.86;100.00;100833.00;5014333;28;20040;-61
2022/11/28 04:33:44;;;;;;;4.50;3.72;;;;;;;6.87;100.00;100835.50;5027485;28;20041;-61
2022/11/28 04:36:12;;;;;;;4.93;3.90;;;;;;;6.84;100.00;100829.59;5027271;28;20041;-61
2022/11/28 04:38:41;;;;;;;6.10;4.38;;;;;;;6.87;100.00;100829.19;4997960;28;20038;-60
2022/11/28 04:41:14;;;;;;;5.10;3.90;;;;;;;6.88;100.00;100828.16;5020272;28;20490;-60
2022/11/28 04:43:49;;;;;;;4.95;3.80;;;;;;;6.86;100.00;100833.00;5009659;28;20038;-60
2022/11/28 04:46:20;;;;;;;4.47;3.63;;;;;;;6.86;100.00;100828.38;5020287;28;20048;-61
2022/11/28 04:48:45;;;;;;;5.35;4.20;;;;;;;6.88;100.00;100826.25;5007674;28;20033;-60
2022/11/28 04:51:19;;;;;;;5.55;3.95;;;;;;;6.88;100.00;100833.59;5013290;28;20038;-61
2022/11/28 04:54:08;;;;;;;5.78;4.20;;;;;;;6.85;100.00;100828.59;5011562;28;20032;-60
2022/11/28 04:56:43;;;;;;;6.07;4.35;;;;;;;6.84;100.00;100835.06;5022072;28;20114;-61
2022/11/28 04:59:09;;;;;;;5.43;3.88;;;;;;;6.84;100.00;100829.59;5027248;28;20108;-61
2022/11/28 05:01:36;;;;;;;6.60;4.30;;;;;;;6.85;100.00;100825.84;5027663;28;20113;-60
2022/11/28 05:04:02;;;;;;;6.03;4.50;;;;;;;6.86;100.00;100827.53;5026167;28;20108;-61
2022/11/28 05:06:31;;;;;;;6.32;4.47;;;;;;;6.87;100.00;100834.66;5026912;28;20060;-61
2022/11/28 05:08:57;;;;;;;5.45;4.43;;;;;;;6.86;100.00;100839.28;5025652;28;20061;-60
2022/11/28 05:11:23;;;;;;;6.38;4.85;;;;;;;6.87;100.00;100840.13;5008761;28;20812;-62
2022/11/28 05:13:48;;;;;;;6.30;4.85;;;;;;;6.86;100.00;100844.75;5027442;28;20032;-60
2022/11/28 05:16:14;;;;;;;5.90;4.75;;;;;;;6.87;100.00;100840.13;5027384;28;20033;-61
2022/11/28 05:18:40;;;;;;;6.05;4.75;;;;;;;6.87;100.00;100840.97;5025418;28;20029;-61
2022/11/28 05:21:07;;;;;;;6.18;4.70;;;;;;;6.88;100.00;100847.25;5015738;28;20072;-61
2022/11/28 05:23:43;;;;;;;6.50;5.13;;;;;;;6.89;100.00;100843.47;5006874;28;20072;-61
2022/11/28 05:26:15;;;;;;;6.25;5.13;;;;;;;6.89;100.00;100846.22;5006060;28;20037;-60
2022/11/28 05:28:48;;;;;;;7.15;5.20;;;;;;;6.90;100.00;100842.44;5022950;28;20049;-61
2022/11/28 05:31:14;;;;;;;6.68;5.07;;;;;;;6.90;100.00;100835.09;5013399;28;20037;-62
2022/11/28 05:33:39;;;;;;;7.40;5.70;;;;;;;6.91;100.00;100849.59;5019809;28;20026;-60
2022/11/28 05:36:07;;;;;;;7.18;5.72;;;;;;;6.90;100.00;100848.75;5018968;28;20037;-60
2022/11/28 05:38:33;;;;;;;7.70;5.30;;;;;;;6.93;100.00;100850.22;5022861;28;20487;-61
2022/11/28 05:40:59;;;;;;;8.30;5.50;;;;;;;6.92;100.00;100854.84;5027207;28;20033;-61
2022/11/28 05:43:24;;;;;;;8.10;5.80;;;;;;;6.92;100.00;100859.47;5015309;28;20100;-61
2022/11/28 05:45:50;;;;;;;7.65;5.82;;;;;;;6.92;100.00;100851.25;5021077;28;20104;-61
2022/11/28 05:48:15;;;;;;;8.85;6.40;;;;;;;6.93;100.00;100853.78;5025693;28;20112;-61
2022/11/28 05:50:41;;;;;;;7.90;6.10;;;;;;;6.95;100.00;100857.16;5009965;28;20053;-61
2022/11/28 05:53:07;;;;;;;7.32;6.20;;;;;;;6.93;100.00;100858.41;5026578;28;20375;-61
2022/11/28 05:55:32;;;;;;;8.15;6.95;;;;;;;6.93;100.00;100853.78;5009430;28;20034;-61
2022/11/28 05:57:58;;;;;;;7.90;6.85;;;;;;;6.95;100.00;100845.41;5005869;28;20041;-60
2022/11/28 06:00:23;;;;;;;8.32;7.10;;;;;;;6.93;100.00;100848.31;5006995;28;20334;-62
2022/11/28 06:02:48;;;;;;;7.68;6.88;;;;;;;6.93;100.00;100845.59;5007000;28;20033;-61
2022/11/28 06:05:14;;;;;;;7.70;6.63;;;;;;;6.94;100.00;100851.88;5006380;28;20109;-60
2022/11/28 06:07:39;;;;;;;8.32;7.43;;;;;;;6.95;100.00;100848.13;5006072;28;20046;-60
2022/11/28 06:10:06;;;;;;;8.93;6.97;;;;;;;6.94;100.00;100849.16;5006463;28;20053;-60
2022/11/28 06:12:31;;;;;;;10.18;7.95;;;;;;;6.94;100.00;100841.81;5005825;28;20034;-62
2022/11/28 06:14:56;;;;;;;8.90;7.35;;;;;;;6.95;100.00;100843.50;5006163;28;20111;-61
2022/11/28 06:17:22;;;;;;;8.73;7.72;;;;;;;6.96;100.00;100850.66;5006433;28;20030;-60
2022/11/28 06:19:47;;;;;;;9.30;7.90;;;;;;;6.97;100.00;100851.47;4989054;28;20032;-61
2022/11/28 06:22:12;;;;;;;9.88;8.23;;;;;;;6.96;100.00;100856.09;5006579;28;20116;-61
2022/11/28 06:24:37;;;;;;;8.70;7.80;;;;;;;6.95;100.00;100854.44;5006040;28;20056;-61
2022/11/28 06:27:03;;;;;;;10.38;8.50;;;;;;;6.96;100.00;100852.53;5005553;28;20484;-62
2022/11/28 06:29:28;;;;;;;9.40;8.32;;;;;;;6.96;100.00;100855.28;5006918;28;20034;-60
2022/11/28 06:31:54;;;;;;;9.80;8.35;;;;;;;6.96;100.00;100858.00;5005985;28;20045;-61
2022/11/28 06:34:20;;;;;;;9.98;8.65;;;;;;;6.97;100.00;100854.22;5006685;28;20080;-60
2022/11/28 06:36:45;;;;;;;10.48;9.38;;;;;;;6.96;100.00;100860.72;5006704;28;20096;-61
2022/11/28 06:39:12;;;;;;;10.10;9.10;;;;;;;6.96;100.00;100869.75;5005888;28;20037;-61
2022/11/28 06:41:38;;;;;;;10.70;9.48;;;;;;;6.97;100.00;100865.13;5005880;28;20107;-60
2022/11/28 06:44:03;;;;;;;12.15;9.73;;;;;;;6.98;100.00;100867.66;5006145;28;20061;-61
2022/11/28 06:46:28;;;;;;;11.82;10.63;;;;;;;7.00;100.00;100872.94;4989166;28;20030;-60
2022/11/28 06:48:54;;;;;;;11.55;9.82;;;;;;;7.00;100.00;100875.66;5006195;28;20026;-60
2022/11/28 06:51:19;;;;;;;12.02;10.82;;;;;;;6.98;100.00;100867.66;5006619;28;20033;-61
2022/11/28 06:53:44;;;;;;;11.10;9.90;;;;;;;7.00;100.00;100867.47;5005883;28;20030;-60
2022/11/28 06:56:13;;;;;;;12.65;10.20;;;;;;;7.01;100.00;100863.69;5005343;28;20029;-60
2022/11/28 06:58:38;;;;;;;12.18;10.35;;;;;;;7.00;100.00;100871.03;5006458;28;20049;-60
2022/11/28 07:01:08;;;;;;;11.95;10.65;;;;;;;7.01;100.00;100863.69;5005680;28;20619;-61
2022/11/28 07:03:33;;;;;;;12.02;10.52;;;;;;;7.01;100.00;100869.16;5006309;28;20030;-60
2022/11/28 07:06:00;;;;;;;11.35;10.00;;;;;;;7.01;100.00;100869.16;5006163;28;20057;-61
2022/11/28 07:08:26;;;;;;;13.45;10.57;;;;;;;7.02;100.00;100873.56;5004266;28;20128;-62
2022/11/28 07:10:51;;;;;;;12.57;11.18;;;;;;;7.01;100.00;100864.53;5003769;28;20049;-60
2022/11/28 07:13:16;;;;;;;12.32;11.02;;;;;;;7.03;100.00;100864.31;5003623;28;20113;-60
2022/11/28 07:15:49;;;;;;;13.55;12.15;;;;;;;7.02;100.00;100874.38;5003573;28;20077;-60
2022/11/28 07:18:14;;;;;;;12.40;10.88;;;;;;;7.02;100.00;100882.59;5005955;28;20099;-59
2022/11/28 07:20:40;;;;;;;14.00;12.02;;;;;;;7.02;100.00;100879.00;5007408;28;20034;-61
2022/11/28 07:23:06;;;;;;;13.82;12.43;;;;;;;7.01;100.00;100877.34;5007175;28;20037;-60
2022/11/28 07:25:31;;;;;;;14.23;12.35;;;;;;;7.01;100.00;100874.59;5006951;28;20033;-60
2022/11/28 07:27:58;;;;;;;15.30;12.50;;;;;;;7.01;100.00;100877.34;5005922;28;20433;-61
2022/11/28 07:30:23;;;;;;;15.13;13.30;;;;;;;7.02;100.00;100876.28;5007536;28;20110;-61
2022/11/28 07:32:49;;;;;;;14.52;12.70;;;;;;;7.03;100.00;100891.63;5007748;28;20492;-60
2022/11/28 07:35:14;;;;;;;14.73;12.23;;;;;;;7.03;100.00;100884.25;5007188;28;20087;-60
2022/11/28 07:37:39;;;;;;;15.40;13.40;;;;;;;7.05;100.00;100889.53;5006666;28;20504;-61
2022/11/28 07:40:05;;;;;;;14.93;12.88;;;;;;;7.06;100.00;100893.09;5006544;28;20022;-60
2022/11/28 07:42:30;;;;;;;16.40;13.20;;;;;;;7.07;100.00;100890.16;5006088;28;20469;-59
2022/11/28 07:44:56;;;;;;;16.23;13.32;;;;;;;7.08;100.00;100889.09;5006832;28;20109;-60
2022/11/28 07:47:21;;;;;;;15.73;13.13;;;;;;;7.10;100.00;100895.22;5006689;28;20140;-61
2022/11/28 07:49:46;;;;;;;15.32;13.15;;;;;;;7.07;100.00;100903.81;5007394;28;20045;-60
2022/11/28 07:52:12;;;;;;;15.52;13.70;;;;;;;7.08;100.00;100899.19;5006777;28;20429;-61
2022/11/28 07:54:37;;;;;;;16.75;13.88;;;;;;;7.08;100.00;100897.28;5006811;28;20045;-59
2022/11/28 07:57:02;;;;;;;17.08;13.93;;;;;;;7.10;100.00;100905.31;5005390;28;20018;-60
2022/11/28 07:59:27;;;;;;;18.60;14.77;;;;;;;7.09;100.00;100898.97;5006878;28;20481;-59
2022/11/28 08:01:53;;;;;;;16.67;14.70;;;;;;;7.12;100.00;100908.66;5006829;28;20541;-61
2022/11/28 08:04:18;;;;;;;17.25;14.20;;;;;;;7.10;100.00;100916.22;5007160;28;20084;-60
2022/11/28 08:06:43;;;;;;;17.08;14.38;;;;;;;7.10;100.00;100911.59;5007163;28;20075;-61
2022/11/28 08:09:10;;;;;;;19.15;15.25;;;;;;;7.11;100.00;100923.38;5006296;28;20057;-61
2022/11/28 08:11:37;;;;;;;17.92;15.00;;;;;;;7.11;100.00;100916.00;5006187;28;20026;-61
2022/11/28 08:14:04;;;;;;;17.50;14.27;;;;;;;7.12;100.00;100912.22;5006708;28;20101;-60
2022/11/28 08:16:29;;;;;;;19.95;14.88;;;;;;;7.13;100.00;100913.91;5007041;28;20037;-62
2022/11/28 08:18:55;;;;;;;19.38;15.35;;;;;;;7.15;100.00;100921.91;5005987;28;20025;-60
2022/11/28 08:21:23;;;;;;;18.58;15.55;;;;;;;7.16;100.00;100915.41;5011702;28;20048;-61
2022/11/28 08:23:52;;;;;;;19.50;15.48;;;;;;;7.18;100.00;100921.47;5008969;28;20034;-61
2022/11/28 08:26:20;;;;;;;20.50;16.02;;;;;;;7.20;100.00;100924.88;5004081;28;20040;-61
2022/11/28 08:28:45;;;;;;;19.02;15.95;;;;;;;7.20;100.00;100914.78;5006182;28;20068;-61
2022/11/28 08:31:11;;;;;;;20.85;16.02;;;;;;;7.22;100.00;100918.13;5006618;28;20515;-61
2022/11/28 08:33:37;;;;;;;19.58;16.08;;;;;;;7.26;100.00;100922.13;5007149;28;20420;-61
2022/11/28 08:36:07;;;;;;;22.98;16.85;;;;;;;7.31;100.00;100921.53;5025838;28;20052;-61
2022/11/28 08:38:32;;;;;;;21.95;16.17;;;;;;;7.33;100.00;100929.50;5025637;28;20048;-60
2022/11/28 08:41:02;;;;;;;21.75;17.02;;;;;;;7.35;100.00;100930.13;5025410;28;20026;-60
2022/11/28 08:43:27;;;;;;;22.23;16.77;;;;;;;7.37;100.00;100925.31;5026244;28;20053;-61
2022/11/28 08:45:53;;;;;;;21.27;16.38;;;;;;;7.40;100.00;100927.59;5026246;28;20466;-61
2022/11/28 08:48:18;;;;;;;22.50;16.25;;;;;;;7.43;100.00;100932.66;5011353;28;20030;-61
2022/11/28 08:50:47;;;;;;;21.85;17.33;;;;;;;7.45;100.00;100938.75;5006142;28;20410;-60
2022/11/28 08:53:12;;;;;;;26.40;19.00;;;;;;;7.43;100.00;100932.66;5006315;28;20033;-60
2022/11/28 08:55:40;;;;;;;23.38;18.73;;;;;;;7.44;100.00;100923.41;5010823;28;20026;-61
2022/11/28 08:58:05;;;;;;;25.50;18.38;;;;;;;7.44;100.00;100932.44;4997006;28;20040;-60
2022/11/28 09:00:31;;;;;;;24.05;17.25;;;;;;;7.46;100.00;100929.53;5021886;28;20025;-60
2022/11/28 09:02:56;;;;;;;23.58;17.15;;;;;;;7.47;100.00;100934.78;5006184;28;20045;-62
2022/11/28 09:05:21;;;;;;;23.42;17.20;;;;;;;7.49;100.00;100929.94;5005131;28;20107;-60
2022/11/28 09:07:46;;;;;;;23.45;17.20;;;;;;;7.50;100.00;100920.72;5005585;28;20050;-60
2022/11/28 09:10:12;;;;;;;25.27;17.60;;;;;;;7.52;100.00;100926.78;5005247;28;20469;-60
2022/11/28 09:12:37;;;;;;;23.52;17.90;;;;;;;7.53;100.00;100928.47;5003400;28;20030;-61
2022/11/28 09:15:03;;;;;;;24.52;17.15;;;;;;;7.57;100.00;100937.09;5015988;28;20021;-60
2022/11/28 09:17:28;;;;;;;23.35;17.48;;;;;;;7.57;100.00;100937.09;5024958;28;20120;-61
2022/11/28 09:19:54;;;;;;;24.35;16.50;;;;;;;7.58;100.00;100936.06;5024438;28;20111;-60
2022/11/28 09:22:19;;;;;;;24.23;16.63;;;;;;;7.59;100.00;100935.00;5015464;28;20025;-60
2022/11/28 09:24:44;;;;;;;24.83;16.73;;;;;;;7.60;100.00;100942.13;4990896;28;20465;-60
2022/11/28 09:27:09;;;;;;;23.42;17.05;;;;;;;7.61;100.00;100946.56;4992035;28;20038;-61
2022/11/28 09:29:34;;;;;;;21.63;15.93;;;;;;;7.62;100.00;100953.72;4999032;28;20050;-60
2022/11/28 09:32:00;;;;;;;22.95;15.82;;;;;;;7.64;100.00;100953.50;4989192;28;20493;-60
2022/11/28 09:34:26;;;;;;;23.85;16.25;;;;;;;7.67;100.00;100945.72;4994889;28;20030;-63
2022/11/28 09:36:51;;;;;;;23.95;16.27;;;;;;;7.69;100.00;100945.50;4992410;28;20084;-61
2022/11/28 09:39:16;;;;;;;22.13;16.27;;;;;;;7.72;100.00;100954.16;4986944;28;20550;-60
2022/11/28 09:41:48;;;;;;;24.95;17.23;;;;;;;7.73;100.00;100946.78;4991402;28;20030;-62
2022/11/28 09:44:40;;;;;;;22.30;15.45;;;;;;;7.77;100.00;100950.78;4994397;28;20068;-60
2022/11/28 09:47:16;;;;;;;22.25;15.75;;;;;;;7.77;100.00;100957.09;4986641;28;20038;-60
2022/11/28 09:49:47;;;;;;;22.27;15.27;;;;;;;7.78;100.00;100956.03;4989282;28;20022;-62
2022/11/28 09:52:31;;;;;;;20.75;15.30;;;;;;;7.80;100.00;100951.19;4986736;28;20109;-61
2022/11/28 09:55:04;;;;;;;22.63;15.30;;;;;;;7.85;100.00;100953.28;5003715;28;20034;-60
2022/11/28 09:57:37;;;;;;;20.55;14.65;;;;;;;7.89;100.00;100959.19;4986587;28;20046;-62
2022/11/28 10:00:05;;;;;;;20.73;14.48;;;;;;;7.90;100.00;100966.34;4993907;28;20130;-62
2022/11/28 10:03:01;;;;;;;20.25;14.43;;;;;;;7.93;100.00;100960.47;4992639;28;20030;-62
2022/11/28 10:05:52;;;;;;;18.48;14.27;;;;;;;7.98;100.00;100956.03;5004598;28;20477;-62
2022/11/28 10:08:48;;;;;;;17.67;13.90;;;;;;;8.02;100.00;100956.47;4987860;28;20065;-63
2022/11/28 10:11:48;;;;;;;16.90;13.43;;;;;;;8.01;100.00;100952.91;4992933;28;20050;-62
2022/11/28 10:14:19;;;;;;;18.67;12.52;;;;;;;8.02;100.00;100951.00;4988554;28;20109;-61
2022/11/28 10:17:23;;;;;;;15.57;12.73;;;;;;;8.02;100.00;100942.78;5004406;28;20045;-61
2022/11/28 10:19:55;;;;;;;15.05;12.07;;;;;;;8.03;100.00;100955.41;4990695;28;20066;-61
2022/11/28 10:22:35;;;;;;;16.88;12.75;;;;;;;8.05;100.00;100953.28;4992306;28;20037;-62
2022/11/28 10:25:07;;;;;;;16.85;12.48;;;;;;;8.10;100.00;100953.50;4982225;28;20053;-61
2022/11/28 10:27:34;;;;;;;17.35;12.95;;;;;;;8.12;100.00;100953.31;4996376;28;20615;-60
2022/11/28 10:30:05;;;;;;;16.77;12.75;;;;;;;8.14;100.00;100959.41;4989699;28;20739;-60
2022/11/28 10:32:36;;;;;;;15.88;12.73;;;;;;;8.14;100.00;100954.75;5001811;28;20373;-60
2022/11/28 10:35:17;;;;;;;16.92;12.95;;;;;;;8.17;100.00;100951.63;5000020;28;20038;-61
2022/11/28 10:37:42;;;;;;;17.70;13.75;;;;;;;8.18;100.00;100946.97;4993140;28;20121;-62
2022/11/28 10:40:42;;;;;;;19.00;13.57;;;;;;;8.19;100.00;100952.22;4998856;28;20683;-60
2022/11/28 10:43:45;;;;;;;16.67;13.23;;;;;;;8.23;100.00;100955.41;4999522;28;20562;-60
2022/11/28 10:46:42;;;;;;;18.52;13.35;;;;;;;8.25;100.00;100956.00;4984703;28;20030;-61
2022/11/28 10:49:23;;;;;;;17.67;12.93;;;;;;;8.27;100.00;100954.75;4984891;28;20040;-60
2022/11/28 10:51:54;;;;;;;18.50;14.10;;;;;;;8.30;100.00;100958.94;5004861;28;20374;-60
2022/11/28 10:54:44;;;;;;;20.17;14.52;;;;;;;8.32;100.00;100954.97;5008524;28;20099;-60
2022/11/28 10:57:21;;;;;;;20.67;15.32;;;;;;;8.38;100.00;100953.28;4988455;28;20027;-61
2022/11/28 11:00:07;;;;;;;22.10;16.65;;;;;;;8.41;100.00;100957.47;4989433;28;20109;-60
2022/11/28 11:02:56;;;;;;;22.20;14.43;;;;;;;8.40;100.00;100961.28;4987996;28;20393;-60
2022/11/28 11:05:27;;;;;;;21.77;15.23;;;;;;;8.44;100.00;100959.81;4993495;28;20033;-61
2022/11/28 11:07:57;;;;;;;22.15;16.60;;;;;;;8.43;100.00;100960.88;5007490;28;20069;-61
2022/11/28 11:10:31;;;;;;;24.30;17.50;;;;;;;8.42;100.00;100960.03;5007115;28;20030;-61
2022/11/28 11:12:58;;;;;;;23.52;16.38;;;;;;;8.43;100.00;100971.81;5008167;28;20049;-61
2022/11/28 11:15:30;;;;;;;25.63;17.25;;;;;;;8.44;100.00;100963.38;5008036;28;20037;-61
2022/11/28 11:17:56;;;;;;;26.65;18.75;;;;;;;8.43;100.00;100961.69;5006988;28;20314;-60
2022/11/28 11:20:22;;;;;;;28.52;19.42;;;;;;;8.45;100.00;100954.09;5005409;28;20050;-60
2022/11/28 11:22:59;;;;;;;25.70;19.40;;;;;;;8.47;100.00;100952.00;5011634;28;20064;-59
2022/11/28 11:25:26;;;;;;;29.23;20.73;;;;;;;8.46;100.00;100954.94;5010411;28;20029;-62
2022/11/28 11:27:55;;;;;;;31.90;20.80;;;;;;;8.50;100.00;100946.09;5009310;28;20291;-61
2022/11/28 11:30:37;;;;;;;32.92;21.73;;;;;;;8.51;100.00;100952.41;5011977;28;20316;-61
2022/11/28 11:33:05;;;;;;;38.83;23.88;;;;;;;8.53;100.00;100953.06;5009640;28;20054;-61
2022/11/28 11:35:35;;;;;;;;;;;;;;;8.64;100.00;100946.06;5028138;28;20033;-61
2022/11/28 11:38:22;;;;;;;40.30;26.83;;;;;;;8.62;100.00;100959.09;4995007;28;20257;-61